sensor_id;sensor_type;location;lat;lon;timestamp;temperature;humidity
72712;SHT30;60828;40.292;17.998;2022-08-01T00:02:04;25.83;59.58
72712;SHT30;60828;40.292;17.998;2022-08-01T00:04:30;25.89;59.36
72712;SHT30;60828;40.292;17.998;2022-08-01T00:06:55;25.90;59.07
72712;SHT30;60828;40.292;17.998;2022-08-01T00:09:21;25.77;59.54
72712;SHT30;60828;40.292;17.998;2022-08-01T00:11:46;25.72;59.59
72712;SHT30;60828;40.292;17.998;2022-08-01T00:14:11;25.74;59.36
72712;SHT30;60828;40.292;17.998;2022-08-01T00:16:37;25.74;59.33
72712;SHT30;60828;40.292;17.998;2022-08-01T00:19:03;25.66;59.53
72712;SHT30;60828;40.292;17.998;2022-08-01T00:21:28;25.53;59.62
72712;SHT30;60828;40.292;17.998;2022-08-01T00:23:54;25.62;59.36
72712;SHT30;60828;40.292;17.998;2022-08-01T00:26:19;25.62;59.46
72712;SHT30;60828;40.292;17.998;2022-08-01T00:28:45;25.62;59.52
72712;SHT30;60828;40.292;17.998;2022-08-01T00:31:11;25.53;59.75
72712;SHT30;60828;40.292;17.998;2022-08-01T00:33:36;25.53;59.55
72712;SHT30;60828;40.292;17.998;2022-08-01T00:36:02;25.36;60.24
72712;SHT30;60828;40.292;17.998;2022-08-01T00:38:28;25.42;60.02
72712;SHT30;60828;40.292;17.998;2022-08-01T00:40:53;25.39;60.22
72712;SHT30;60828;40.292;17.998;2022-08-01T00:43:19;25.33;60.45
72712;SHT30;60828;40.292;17.998;2022-08-01T00:45:44;25.33;60.62
72712;SHT30;60828;40.292;17.998;2022-08-01T00:48:10;25.38;60.61
72712;SHT30;60828;40.292;17.998;2022-08-01T00:50:35;25.32;60.77
72712;SHT30;60828;40.292;17.998;2022-08-01T00:53:01;25.28;61.03
72712;SHT30;60828;40.292;17.998;2022-08-01T00:55:28;25.26;61.44
72712;SHT30;60828;40.292;17.998;2022-08-01T00:57:54;25.31;61.33
72712;SHT30;60828;40.292;17.998;2022-08-01T01:00:21;25.29;61.38
72712;SHT30;60828;40.292;17.998;2022-08-01T01:02:47;25.21;61.77
72712;SHT30;60828;40.292;17.998;2022-08-01T01:05:13;25.21;61.72
72712;SHT30;60828;40.292;17.998;2022-08-01T01:07:59;25.22;61.50
72712;SHT30;60828;40.292;17.998;2022-08-01T01:13:08;25.36;61.73
72712;SHT30;60828;40.292;17.998;2022-08-01T01:15:41;25.45;62.21
72712;SHT30;60828;40.292;17.998;2022-08-01T01:18:14;25.32;62.25
72712;SHT30;60828;40.292;17.998;2022-08-01T01:31:46;25.62;61.92
72712;SHT30;60828;40.292;17.998;2022-08-01T01:34:15;25.60;62.22
72712;SHT30;60828;40.292;17.998;2022-08-01T01:36:43;25.50;62.64
72712;SHT30;60828;40.292;17.998;2022-08-01T01:39:11;25.46;62.93
72712;SHT30;60828;40.292;17.998;2022-08-01T01:41:40;25.53;62.91
72712;SHT30;60828;40.292;17.998;2022-08-01T01:44:06;25.62;62.85
72712;SHT30;60828;40.292;17.998;2022-08-01T01:46:34;25.65;62.81
72712;SHT30;60828;40.292;17.998;2022-08-01T01:49:01;25.73;62.72
72712;SHT30;60828;40.292;17.998;2022-08-01T01:51:28;25.81;62.53
72712;SHT30;60828;40.292;17.998;2022-08-01T01:53:56;25.81;62.44
72712;SHT30;60828;40.292;17.998;2022-08-01T01:56:22;25.86;62.36
72712;SHT30;60828;40.292;17.998;2022-08-01T01:58:55;25.80;62.64
72712;SHT30;60828;40.292;17.998;2022-08-01T02:01:23;25.70;62.93
72712;SHT30;60828;40.292;17.998;2022-08-01T02:03:51;25.63;63.25
72712;SHT30;60828;40.292;17.998;2022-08-01T02:06:20;25.60;63.42
72712;SHT30;60828;40.292;17.998;2022-08-01T02:08:48;25.63;63.42
72712;SHT30;60828;40.292;17.998;2022-08-01T02:11:13;25.52;63.83
72712;SHT30;60828;40.292;17.998;2022-08-01T02:13:57;25.52;63.79
72712;SHT30;60828;40.292;17.998;2022-08-01T02:16:26;25.65;63.37
72712;SHT30;60828;40.292;17.998;2022-08-01T02:18:53;25.65;63.51
72712;SHT30;60828;40.292;17.998;2022-08-01T02:21:25;25.62;63.43
72712;SHT30;60828;40.292;17.998;2022-08-01T02:23:52;25.65;63.36
72712;SHT30;60828;40.292;17.998;2022-08-01T02:26:22;25.69;63.09
72712;SHT30;60828;40.292;17.998;2022-08-01T02:29:06;25.66;63.21
72712;SHT30;60828;40.292;17.998;2022-08-01T02:31:35;25.70;63.03
72712;SHT30;60828;40.292;17.998;2022-08-01T02:34:04;25.73;62.68
72712;SHT30;60828;40.292;17.998;2022-08-01T02:36:33;25.83;62.19
72712;SHT30;60828;40.292;17.998;2022-08-01T02:39:08;25.81;61.94
72712;SHT30;60828;40.292;17.998;2022-08-01T02:41:41;25.77;62.04
72712;SHT30;60828;40.292;17.998;2022-08-01T02:44:09;25.72;62.05
72712;SHT30;60828;40.292;17.998;2022-08-01T02:46:39;25.74;61.92
72712;SHT30;60828;40.292;17.998;2022-08-01T02:49:07;25.69;62.05
72712;SHT30;60828;40.292;17.998;2022-08-01T02:51:35;25.74;61.79
72712;SHT30;60828;40.292;17.998;2022-08-01T02:54:02;25.58;61.95
72712;SHT30;60828;40.292;17.998;2022-08-01T02:56:29;25.53;62.01
72712;SHT30;60828;40.292;17.998;2022-08-01T02:59:04;25.54;62.05
72712;SHT30;60828;40.292;17.998;2022-08-01T03:01:32;25.60;61.93
72712;SHT30;60828;40.292;17.998;2022-08-01T03:03:58;25.65;61.97
72712;SHT30;60828;40.292;17.998;2022-08-01T03:06:24;25.63;62.05
72712;SHT30;60828;40.292;17.998;2022-08-01T03:08:50;25.66;62.05
72712;SHT30;60828;40.292;17.998;2022-08-01T03:11:17;25.69;62.12
72712;SHT30;60828;40.292;17.998;2022-08-01T03:13:45;25.62;62.26
72712;SHT30;60828;40.292;17.998;2022-08-01T03:16:13;25.62;62.32
72712;SHT30;60828;40.292;17.998;2022-08-01T03:18:40;25.60;62.38
72712;SHT30;60828;40.292;17.998;2022-08-01T03:21:06;25.49;62.61
72712;SHT30;60828;40.292;17.998;2022-08-01T03:23:35;25.54;62.66
72712;SHT30;60828;40.292;17.998;2022-08-01T03:26:01;25.56;62.62
72712;SHT30;60828;40.292;17.998;2022-08-01T03:28:27;25.52;63.17
72712;SHT30;60828;40.292;17.998;2022-08-01T03:30:54;25.66;63.02
72712;SHT30;60828;40.292;17.998;2022-08-01T03:33:20;25.66;63.34
72712;SHT30;60828;40.292;17.998;2022-08-01T03:35:48;25.58;63.79
72712;SHT30;60828;40.292;17.998;2022-08-01T03:38:18;25.66;63.73
72712;SHT30;60828;40.292;17.998;2022-08-01T03:40:49;25.70;63.86
72712;SHT30;60828;40.292;17.998;2022-08-01T03:43:26;25.83;63.91
72712;SHT30;60828;40.292;17.998;2022-08-01T03:45:53;25.72;64.56
72712;SHT30;60828;40.292;17.998;2022-08-01T03:48:24;25.76;64.62
72712;SHT30;60828;40.292;17.998;2022-08-01T03:50:53;25.77;64.99
72712;SHT30;60828;40.292;17.998;2022-08-01T03:53:24;25.73;65.46
72712;SHT30;60828;40.292;17.998;2022-08-01T03:55:52;25.79;65.37
72712;SHT30;60828;40.292;17.998;2022-08-01T03:58:19;25.86;65.41
72712;SHT30;60828;40.292;17.998;2022-08-01T04:00:45;25.86;65.62
72712;SHT30;60828;40.292;17.998;2022-08-01T04:03:12;25.96;65.95
72712;SHT30;60828;40.292;17.998;2022-08-01T04:05:41;25.97;66.19
72712;SHT30;60828;40.292;17.998;2022-08-01T04:08:06;26.07;66.20
72712;SHT30;60828;40.292;17.998;2022-08-01T04:10:32;26.07;66.37
72712;SHT30;60828;40.292;17.998;2022-08-01T04:12:57;26.11;66.69
72712;SHT30;60828;40.292;17.998;2022-08-01T04:15:23;26.17;66.83
72712;SHT30;60828;40.292;17.998;2022-08-01T04:17:49;26.27;67.00
72712;SHT30;60828;40.292;17.998;2022-08-01T04:20:14;26.29;67.46
72712;SHT30;60828;40.292;17.998;2022-08-01T04:22:41;26.31;67.82
72712;SHT30;60828;40.292;17.998;2022-08-01T04:25:11;26.31;68.21
72712;SHT30;60828;40.292;17.998;2022-08-01T04:27:40;26.37;68.45
72712;SHT30;60828;40.292;17.998;2022-08-01T04:30:08;26.41;69.19
72712;SHT30;60828;40.292;17.998;2022-08-01T04:32:38;26.49;69.72
72712;SHT30;60828;40.292;17.998;2022-08-01T04:35:06;26.62;69.70
72712;SHT30;60828;40.292;17.998;2022-08-01T04:37:35;26.68;69.81
72712;SHT30;60828;40.292;17.998;2022-08-01T04:40:04;26.62;70.68
72712;SHT30;60828;40.292;17.998;2022-08-01T04:42:32;26.63;71.04
72712;SHT30;60828;40.292;17.998;2022-08-01T04:44:58;26.75;70.97
72712;SHT30;60828;40.292;17.998;2022-08-01T04:47:25;26.80;70.79
72712;SHT30;60828;40.292;17.998;2022-08-01T04:49:51;26.87;70.55
72712;SHT30;60828;40.292;17.998;2022-08-01T04:52:17;26.79;70.32
72712;SHT30;60828;40.292;17.998;2022-08-01T04:54:43;26.84;69.92
72712;SHT30;60828;40.292;17.998;2022-08-01T04:57:08;26.93;69.32
72712;SHT30;60828;40.292;17.998;2022-08-01T04:59:37;27.03;68.57
72712;SHT30;60828;40.292;17.998;2022-08-01T05:02:11;27.04;67.71
72712;SHT30;60828;40.292;17.998;2022-08-01T05:04:37;27.04;66.61
72712;SHT30;60828;40.292;17.998;2022-08-01T05:07:04;27.14;66.32
72712;SHT30;60828;40.292;17.998;2022-08-01T05:09:30;27.29;65.63
72712;SHT30;60828;40.292;17.998;2022-08-01T05:11:57;27.24;64.51
72712;SHT30;60828;40.292;17.998;2022-08-01T05:14:27;27.21;63.41
72712;SHT30;60828;40.292;17.998;2022-08-01T05:16:54;27.27;63.08
72712;SHT30;60828;40.292;17.998;2022-08-01T05:19:20;27.51;62.21
72712;SHT30;60828;40.292;17.998;2022-08-01T05:21:46;27.48;62.20
72712;SHT30;60828;40.292;17.998;2022-08-01T05:24:12;27.78;61.72
72712;SHT30;60828;40.292;17.998;2022-08-01T05:26:38;27.96;61.09
72712;SHT30;60828;40.292;17.998;2022-08-01T05:29:04;28.00;60.32
72712;SHT30;60828;40.292;17.998;2022-08-01T05:31:29;28.05;59.83
72712;SHT30;60828;40.292;17.998;2022-08-01T05:33:55;27.99;59.42
72712;SHT30;60828;40.292;17.998;2022-08-01T05:36:21;28.55;57.95
72712;SHT30;60828;40.292;17.998;2022-08-01T05:38:46;29.92;54.22
72712;SHT30;60828;40.292;17.998;2022-08-01T05:41:11;31.93;49.37
72712;SHT30;60828;40.292;17.998;2022-08-01T05:43:40;34.10;44.71
72712;SHT30;60828;40.292;17.998;2022-08-01T05:46:05;35.05;41.99
72712;SHT30;60828;40.292;17.998;2022-08-01T05:48:31;34.43;42.87
72712;SHT30;60828;40.292;17.998;2022-08-01T05:50:56;35.62;40.35
72712;SHT30;60828;40.292;17.998;2022-08-01T05:53:22;36.32;38.88
72712;SHT30;60828;40.292;17.998;2022-08-01T05:55:48;35.54;39.67
72712;SHT30;60828;40.292;17.998;2022-08-01T05:58:13;35.31;39.28
72712;SHT30;60828;40.292;17.998;2022-08-01T06:00:39;35.64;38.69
72712;SHT30;60828;40.292;17.998;2022-08-01T06:03:05;36.29;37.30
72712;SHT30;60828;40.292;17.998;2022-08-01T06:05:30;36.07;37.07
72712;SHT30;60828;40.292;17.998;2022-08-01T06:07:56;36.04;37.10
72712;SHT30;60828;40.292;17.998;2022-08-01T06:10:23;36.66;36.13
72712;SHT30;60828;40.292;17.998;2022-08-01T06:12:48;35.67;37.77
72712;SHT30;60828;40.292;17.998;2022-08-01T06:15:14;36.94;35.49
72712;SHT30;60828;40.292;17.998;2022-08-01T06:17:39;37.78;34.33
72712;SHT30;60828;40.292;17.998;2022-08-01T06:20:07;36.39;36.21
72712;SHT30;60828;40.292;17.998;2022-08-01T06:22:32;37.30;35.07
72712;SHT30;60828;40.292;17.998;2022-08-01T06:24:58;37.48;33.78
72712;SHT30;60828;40.292;17.998;2022-08-01T06:27:24;36.87;34.60
72712;SHT30;60828;40.292;17.998;2022-08-01T06:29:52;36.93;34.77
72712;SHT30;60828;40.292;17.998;2022-08-01T06:32:22;37.41;34.48
72712;SHT30;60828;40.292;17.998;2022-08-01T06:34:48;39.08;32.15
72712;SHT30;60828;40.292;17.998;2022-08-01T06:37:13;39.46;31.45
72712;SHT30;60828;40.292;17.998;2022-08-01T06:39:39;38.64;32.12
72712;SHT30;60828;40.292;17.998;2022-08-01T06:42:05;37.79;33.01
72712;SHT30;60828;40.292;17.998;2022-08-01T06:44:30;37.89;32.65
72712;SHT30;60828;40.292;17.998;2022-08-01T06:46:56;37.33;33.79
72712;SHT30;60828;40.292;17.998;2022-08-01T06:49:24;37.04;34.15
72712;SHT30;60828;40.292;17.998;2022-08-01T06:51:49;36.39;34.89
72712;SHT30;60828;40.292;17.998;2022-08-01T06:54:15;36.94;34.50
72712;SHT30;60828;40.292;17.998;2022-08-01T06:56:41;38.41;32.02
72712;SHT30;60828;40.292;17.998;2022-08-01T06:59:07;38.12;32.13
72712;SHT30;60828;40.292;17.998;2022-08-01T07:01:32;38.30;32.07
72712;SHT30;60828;40.292;17.998;2022-08-01T07:03:58;39.09;30.84
72712;SHT30;60828;40.292;17.998;2022-08-01T07:06:25;37.10;33.43
72712;SHT30;60828;40.292;17.998;2022-08-01T07:08:52;37.71;32.46
72712;SHT30;60828;40.292;17.998;2022-08-01T07:11:17;37.55;33.30
72712;SHT30;60828;40.292;17.998;2022-08-01T07:13:43;37.76;32.39
72712;SHT30;60828;40.292;17.998;2022-08-01T07:16:10;38.06;32.05
72712;SHT30;60828;40.292;17.998;2022-08-01T07:18:59;37.82;32.02
72712;SHT30;60828;40.292;17.998;2022-08-01T07:21:24;39.19;30.40
72712;SHT30;60828;40.292;17.998;2022-08-01T07:23:52;39.22;31.03
72712;SHT30;60828;40.292;17.998;2022-08-01T07:26:18;39.01;30.90
72712;SHT30;60828;40.292;17.998;2022-08-01T07:28:43;38.70;31.14
72712;SHT30;60828;40.292;17.998;2022-08-01T07:31:08;38.30;31.40
72712;SHT30;60828;40.292;17.998;2022-08-01T07:33:36;38.85;31.01
72712;SHT30;60828;40.292;17.998;2022-08-01T07:36:02;38.27;31.77
72712;SHT30;60828;40.292;17.998;2022-08-01T07:38:28;37.89;31.55
72712;SHT30;60828;40.292;17.998;2022-08-01T07:40:54;37.00;32.68
72712;SHT30;60828;40.292;17.998;2022-08-01T07:43:20;36.61;32.81
72712;SHT30;60828;40.292;17.998;2022-08-01T07:45:45;36.62;32.37
72712;SHT30;60828;40.292;17.998;2022-08-01T07:48:10;35.80;32.89
72712;SHT30;60828;40.292;17.998;2022-08-01T07:50:36;36.49;32.49
72712;SHT30;60828;40.292;17.998;2022-08-01T07:53:01;36.37;32.77
72712;SHT30;60828;40.292;17.998;2022-08-01T07:55:27;37.00;31.88
72712;SHT30;60828;40.292;17.998;2022-08-01T07:57:53;36.12;33.27
72712;SHT30;60828;40.292;17.998;2022-08-01T08:00:18;36.63;32.62
72712;SHT30;60828;40.292;17.998;2022-08-01T08:02:44;36.83;32.13
72712;SHT30;60828;40.292;17.998;2022-08-01T08:05:09;36.45;32.23
72712;SHT30;60828;40.292;17.998;2022-08-01T08:07:38;36.90;31.06
72712;SHT30;60828;40.292;17.998;2022-08-01T08:10:04;36.34;32.02
72712;SHT30;60828;40.292;17.998;2022-08-01T08:12:29;36.92;31.50
72712;SHT30;60828;40.292;17.998;2022-08-01T08:14:55;36.66;31.10
72712;SHT30;60828;40.292;17.998;2022-08-01T08:17:21;35.74;30.42
72712;SHT30;60828;40.292;17.998;2022-08-01T08:19:46;35.14;32.55
72712;SHT30;60828;40.292;17.998;2022-08-01T08:22:11;35.52;31.92
72712;SHT30;60828;40.292;17.998;2022-08-01T08:24:37;35.97;31.19
72712;SHT30;60828;40.292;17.998;2022-08-01T08:27:02;36.86;29.56
72712;SHT30;60828;40.292;17.998;2022-08-01T08:29:28;38.08;26.89
72712;SHT30;60828;40.292;17.998;2022-08-01T08:31:55;36.93;28.16
72712;SHT30;60828;40.292;17.998;2022-08-01T08:34:22;37.13;28.57
72712;SHT30;60828;40.292;17.998;2022-08-01T08:36:51;36.86;27.63
72712;SHT30;60828;40.292;17.998;2022-08-01T08:39:17;36.28;27.39
72712;SHT30;60828;40.292;17.998;2022-08-01T08:41:43;36.62;26.60
72712;SHT30;60828;40.292;17.998;2022-08-01T08:44:10;36.61;27.46
72712;SHT30;60828;40.292;17.998;2022-08-01T08:46:41;36.10;28.97
72712;SHT30;60828;40.292;17.998;2022-08-01T08:49:08;35.81;27.96
72712;SHT30;60828;40.292;17.998;2022-08-01T08:51:38;35.47;27.61
72712;SHT30;60828;40.292;17.998;2022-08-01T08:54:06;35.73;28.18
72712;SHT30;60828;40.292;17.998;2022-08-01T08:56:34;35.74;26.79
72712;SHT30;60828;40.292;17.998;2022-08-01T08:59:02;35.06;29.25
72712;SHT30;60828;40.292;17.998;2022-08-01T09:01:27;34.94;29.62
72712;SHT30;60828;40.292;17.998;2022-08-01T09:03:53;35.69;29.33
72712;SHT30;60828;40.292;17.998;2022-08-01T09:06:19;36.28;28.29
72712;SHT30;60828;40.292;17.998;2022-08-01T09:08:45;35.64;30.25
72712;SHT30;60828;40.292;17.998;2022-08-01T09:11:11;35.56;30.49
72712;SHT30;60828;40.292;17.998;2022-08-01T09:13:36;34.47;30.31
72712;SHT30;60828;40.292;17.998;2022-08-01T09:16:03;34.94;29.96
72712;SHT30;60828;40.292;17.998;2022-08-01T09:23:33;36.00;27.82
72712;SHT30;60828;40.292;17.998;2022-08-01T09:25:59;36.27;27.63
72712;SHT30;60828;40.292;17.998;2022-08-01T09:28:28;35.41;29.82
72712;SHT30;60828;40.292;17.998;2022-08-01T09:30:56;35.15;29.17
72712;SHT30;60828;40.292;17.998;2022-08-01T09:33:22;34.95;30.30
72712;SHT30;60828;40.292;17.998;2022-08-01T09:35:56;35.45;30.41
72712;SHT30;60828;40.292;17.998;2022-08-01T09:38:24;36.00;29.02
72712;SHT30;60828;40.292;17.998;2022-08-01T09:40:56;36.29;28.14
72712;SHT30;60828;40.292;17.998;2022-08-01T09:43:25;35.67;29.27
72712;SHT30;60828;40.292;17.998;2022-08-01T09:45:51;35.04;28.89
72712;SHT30;60828;40.292;17.998;2022-08-01T09:48:17;35.24;27.31
72712;SHT30;60828;40.292;17.998;2022-08-01T09:50:45;35.53;28.39
72712;SHT30;60828;40.292;17.998;2022-08-01T09:53:12;35.84;28.30
72712;SHT30;60828;40.292;17.998;2022-08-01T09:55:38;35.90;27.54
72712;SHT30;60828;40.292;17.998;2022-08-01T09:58:05;35.94;28.46
72712;SHT30;60828;40.292;17.998;2022-08-01T10:00:32;35.74;29.71
72712;SHT30;60828;40.292;17.998;2022-08-01T10:02:58;35.25;27.62
72712;SHT30;60828;40.292;17.998;2022-08-01T10:05:35;34.90;29.41
72712;SHT30;60828;40.292;17.998;2022-08-01T10:08:03;34.86;29.98
72712;SHT30;60828;40.292;17.998;2022-08-01T10:10:30;35.25;28.61
72712;SHT30;60828;40.292;17.998;2022-08-01T10:12:57;35.35;27.76
72712;SHT30;60828;40.292;17.998;2022-08-01T10:15:25;35.14;27.86
72712;SHT30;60828;40.292;17.998;2022-08-01T10:17:54;35.41;27.52
72712;SHT30;60828;40.292;17.998;2022-08-01T10:20:24;35.66;27.42
72712;SHT30;60828;40.292;17.998;2022-08-01T10:22:52;35.91;27.21
72712;SHT30;60828;40.292;17.998;2022-08-01T10:25:19;36.11;27.71
72712;SHT30;60828;40.292;17.998;2022-08-01T10:27:48;35.57;25.24
72712;SHT30;60828;40.292;17.998;2022-08-01T10:30:14;35.45;26.22
72712;SHT30;60828;40.292;17.998;2022-08-01T10:32:41;34.49;28.16
72712;SHT30;60828;40.292;17.998;2022-08-01T10:35:08;34.78;27.86
72712;SHT30;60828;40.292;17.998;2022-08-01T10:37:35;34.74;27.93
72712;SHT30;60828;40.292;17.998;2022-08-01T10:40:01;34.54;27.85
72712;SHT30;60828;40.292;17.998;2022-08-01T10:42:27;34.88;28.14
72712;SHT30;60828;40.292;17.998;2022-08-01T10:44:54;35.19;26.00
72712;SHT30;60828;40.292;17.998;2022-08-01T10:47:57;35.54;26.99
72712;SHT30;60828;40.292;17.998;2022-08-01T10:50:32;35.57;26.81
72712;SHT30;60828;40.292;17.998;2022-08-01T10:53:21;35.24;27.24
72712;SHT30;60828;40.292;17.998;2022-08-01T10:58:42;35.11;27.61
72712;SHT30;60828;40.292;17.998;2022-08-01T11:01:31;35.52;25.97
72712;SHT30;60828;40.292;17.998;2022-08-01T11:04:10;35.77;27.02
72712;SHT30;60828;40.292;17.998;2022-08-01T11:06:54;34.61;28.24
72712;SHT30;60828;40.292;17.998;2022-08-01T11:09:38;34.72;27.93
72712;SHT30;60828;40.292;17.998;2022-08-01T11:12:08;35.05;27.39
72712;SHT30;60828;40.292;17.998;2022-08-01T11:17:43;34.78;27.98
72712;SHT30;60828;40.292;17.998;2022-08-01T11:20:18;35.15;27.21
72712;SHT30;60828;40.292;17.998;2022-08-01T11:30:52;35.06;27.23
72712;SHT30;60828;40.292;17.998;2022-08-01T11:38:43;35.06;28.20
72712;SHT30;60828;40.292;17.998;2022-08-01T11:44:00;35.24;27.69
72712;SHT30;60828;40.292;17.998;2022-08-01T11:49:31;35.73;26.28
72712;SHT30;60828;40.292;17.998;2022-08-01T11:52:24;36.10;26.70
72712;SHT30;60828;40.292;17.998;2022-08-01T11:57:25;36.02;26.36
72712;SHT30;60828;40.292;17.998;2022-08-01T11:59:53;36.41;26.13
72712;SHT30;60828;40.292;17.998;2022-08-01T12:02:25;36.97;26.23
72712;SHT30;60828;40.292;17.998;2022-08-01T12:04:53;37.00;26.64
72712;SHT30;60828;40.292;17.998;2022-08-01T12:07:20;36.63;27.18
72712;SHT30;60828;40.292;17.998;2022-08-01T12:09:47;36.02;27.53
72712;SHT30;60828;40.292;17.998;2022-08-01T12:12:16;36.41;27.20
72712;SHT30;60828;40.292;17.998;2022-08-01T12:14:43;35.89;27.98
72712;SHT30;60828;40.292;17.998;2022-08-01T12:17:09;36.11;27.27
72712;SHT30;60828;40.292;17.998;2022-08-01T12:19:35;35.83;28.24
72712;SHT30;60828;40.292;17.998;2022-08-01T12:22:22;36.05;27.43
72712;SHT30;60828;40.292;17.998;2022-08-01T12:24:48;36.18;26.67
72712;SHT30;60828;40.292;17.998;2022-08-01T12:27:24;36.51;26.49
72712;SHT30;60828;40.292;17.998;2022-08-01T12:29:50;36.66;26.46
72712;SHT30;60828;40.292;17.998;2022-08-01T12:32:31;36.24;26.87
72712;SHT30;60828;40.292;17.998;2022-08-01T12:37:32;36.61;26.77
72712;SHT30;60828;40.292;17.998;2022-08-01T12:39:58;36.75;27.71
72712;SHT30;60828;40.292;17.998;2022-08-01T12:42:24;36.34;27.95
72712;SHT30;60828;40.292;17.998;2022-08-01T12:44:51;35.73;28.89
72712;SHT30;60828;40.292;17.998;2022-08-01T12:47:17;36.10;29.46
72712;SHT30;60828;40.292;17.998;2022-08-01T12:49:44;36.12;30.28
72712;SHT30;60828;40.292;17.998;2022-08-01T12:52:11;36.38;28.38
72712;SHT30;60828;40.292;17.998;2022-08-01T12:57:38;36.46;27.82
72712;SHT30;60828;40.292;17.998;2022-08-01T13:02:48;36.35;28.30
72712;SHT30;60828;40.292;17.998;2022-08-01T13:05:15;35.72;28.77
72712;SHT30;60828;40.292;17.998;2022-08-01T13:07:49;35.87;29.01
72712;SHT30;60828;40.292;17.998;2022-08-01T13:10:28;35.57;28.03
72712;SHT30;60828;40.292;17.998;2022-08-01T13:12:56;35.63;27.60
72712;SHT30;60828;40.292;17.998;2022-08-01T13:15:29;35.59;26.87
72712;SHT30;60828;40.292;17.998;2022-08-01T13:17:58;35.45;26.95
72712;SHT30;60828;40.292;17.998;2022-08-01T13:20:33;35.69;28.04
72712;SHT30;60828;40.292;17.998;2022-08-01T13:23:11;35.83;27.36
72712;SHT30;60828;40.292;17.998;2022-08-01T13:25:50;36.01;27.00
72712;SHT30;60828;40.292;17.998;2022-08-01T13:28:18;35.52;27.32
72712;SHT30;60828;40.292;17.998;2022-08-01T13:31:00;34.91;27.57
72712;SHT30;60828;40.292;17.998;2022-08-01T13:33:28;35.72;25.89
72712;SHT30;60828;40.292;17.998;2022-08-01T13:36:04;35.08;26.99
72712;SHT30;60828;40.292;17.998;2022-08-01T13:38:30;35.39;25.42
72712;SHT30;60828;40.292;17.998;2022-08-01T13:41:14;36.14;24.41
72712;SHT30;60828;40.292;17.998;2022-08-01T13:43:40;35.79;24.75
72712;SHT30;60828;40.292;17.998;2022-08-01T13:46:06;35.67;24.78
72712;SHT30;60828;40.292;17.998;2022-08-01T13:48:32;35.63;25.25
72712;SHT30;60828;40.292;17.998;2022-08-01T13:50:58;35.62;25.17
72712;SHT30;60828;40.292;17.998;2022-08-01T13:53:25;35.94;25.02
72712;SHT30;60828;40.292;17.998;2022-08-01T13:55:50;35.54;25.19
72712;SHT30;60828;40.292;17.998;2022-08-01T13:58:16;35.39;26.72
72712;SHT30;60828;40.292;17.998;2022-08-01T14:00:42;35.38;26.84
72712;SHT30;60828;40.292;17.998;2022-08-01T14:03:07;35.18;27.43
72712;SHT30;60828;40.292;17.998;2022-08-01T14:05:35;35.52;26.21
72712;SHT30;60828;40.292;17.998;2022-08-01T14:08:01;36.28;25.89
72712;SHT30;60828;40.292;17.998;2022-08-01T14:10:26;35.43;27.44
72712;SHT30;60828;40.292;17.998;2022-08-01T14:12:51;35.36;27.94
72712;SHT30;60828;40.292;17.998;2022-08-01T14:15:18;35.87;27.74
72712;SHT30;60828;40.292;17.998;2022-08-01T14:17:43;35.74;28.44
72712;SHT30;60828;40.292;17.998;2022-08-01T14:20:09;35.86;28.60
72712;SHT30;60828;40.292;17.998;2022-08-01T14:22:35;35.57;27.47
72712;SHT30;60828;40.292;17.998;2022-08-01T14:25:01;35.53;26.12
72712;SHT30;60828;40.292;17.998;2022-08-01T14:27:27;35.59;26.65
72712;SHT30;60828;40.292;17.998;2022-08-01T14:29:55;35.91;26.64
72712;SHT30;60828;40.292;17.998;2022-08-01T14:32:20;35.52;26.94
72712;SHT30;60828;40.292;17.998;2022-08-01T14:34:46;35.66;26.64
72712;SHT30;60828;40.292;17.998;2022-08-01T14:37:11;35.91;27.13
72712;SHT30;60828;40.292;17.998;2022-08-01T14:39:37;36.04;26.98
72712;SHT30;60828;40.292;17.998;2022-08-01T14:42:03;35.41;27.23
72712;SHT30;60828;40.292;17.998;2022-08-01T14:44:28;34.87;28.23
72712;SHT30;60828;40.292;17.998;2022-08-01T14:46:54;34.87;28.83
72712;SHT30;60828;40.292;17.998;2022-08-01T14:49:19;34.80;28.28
72712;SHT30;60828;40.292;17.998;2022-08-01T14:51:45;34.41;29.35
72712;SHT30;60828;40.292;17.998;2022-08-01T14:54:10;34.43;29.55
72712;SHT30;60828;40.292;17.998;2022-08-01T14:56:36;34.50;29.64
72712;SHT30;60828;40.292;17.998;2022-08-01T14:59:01;34.70;28.52
72712;SHT30;60828;40.292;17.998;2022-08-01T15:01:27;34.70;27.77
72712;SHT30;60828;40.292;17.998;2022-08-01T15:03:58;34.33;28.81
72712;SHT30;60828;40.292;17.998;2022-08-01T15:06:23;34.12;29.46
72712;SHT30;60828;40.292;17.998;2022-08-01T15:08:49;33.95;29.49
72712;SHT30;60828;40.292;17.998;2022-08-01T15:11:14;33.68;29.24
72712;SHT30;60828;40.292;17.998;2022-08-01T15:13:40;33.58;29.98
72712;SHT30;60828;40.292;17.998;2022-08-01T15:16:05;33.71;30.55
72712;SHT30;60828;40.292;17.998;2022-08-01T15:18:31;33.17;30.68
72712;SHT30;60828;40.292;17.998;2022-08-01T15:20:56;33.04;31.90
72712;SHT30;60828;40.292;17.998;2022-08-01T15:23:25;33.68;32.01
72712;SHT30;60828;40.292;17.998;2022-08-01T15:25:50;33.72;31.06
72712;SHT30;60828;40.292;17.998;2022-08-01T15:28:16;33.51;32.72
72712;SHT30;60828;40.292;17.998;2022-08-01T15:30:41;33.40;32.66
72712;SHT30;60828;40.292;17.998;2022-08-01T15:33:07;33.82;32.05
72712;SHT30;60828;40.292;17.998;2022-08-01T15:35:33;33.88;30.58
72712;SHT30;60828;40.292;17.998;2022-08-01T15:37:58;34.01;28.83
72712;SHT30;60828;40.292;17.998;2022-08-01T15:40:24;33.26;29.91
72712;SHT30;60828;40.292;17.998;2022-08-01T15:42:49;33.27;29.92
72712;SHT30;60828;40.292;17.998;2022-08-01T15:45:15;33.48;30.56
72712;SHT30;60828;40.292;17.998;2022-08-01T15:47:43;33.35;31.09
72712;SHT30;60828;40.292;17.998;2022-08-01T15:50:09;33.33;28.85
72712;SHT30;60828;40.292;17.998;2022-08-01T15:52:34;33.30;29.60
72712;SHT30;60828;40.292;17.998;2022-08-01T15:55:00;33.40;29.32
72712;SHT30;60828;40.292;17.998;2022-08-01T15:57:26;33.14;29.85
72712;SHT30;60828;40.292;17.998;2022-08-01T15:59:52;33.23;29.32
72712;SHT30;60828;40.292;17.998;2022-08-01T16:02:17;33.21;28.79
72712;SHT30;60828;40.292;17.998;2022-08-01T16:04:43;32.92;30.27
72712;SHT30;60828;40.292;17.998;2022-08-01T16:07:16;32.80;30.19
72712;SHT30;60828;40.292;17.998;2022-08-01T16:09:41;32.86;29.23
72712;SHT30;60828;40.292;17.998;2022-08-01T16:12:07;32.87;29.19
72712;SHT30;60828;40.292;17.998;2022-08-01T16:14:34;32.72;29.84